アピア の空港の天気 - METARとTAF

ファレオロ国際空港(サモア) ( NSFA / APW ) - サモア アピア
飛行場実況気象(Metar)
観測時間11/18 07:00 WSDT (11/17 17:00 UTC)
風向・風速東 2m/s
視程10km以上
天気現象
全天の4割程度の雲 雲底高度 610m
全天の4割程度の雲 雲底高度 1400m
全天の8割程度の雲 雲底高度 3960m
気温25℃
湿度100%
気圧1008hPa
METARNSFA 171700Z COR 10003KT 9999 SCT020 SCT046 BKN130 25/25 Q1008 RMK DISTANT SHOWERS TO N
過去の天気等 Google飛行場航空写真 Wunderground天気予報

過去48時間のMETAR

飛行場予報(TAF)
発表時間: 11/18 07:06 WSDT (11/17 17:06 UTC)
予報対象時間: 18日8時 WSDT ~ 19日8時 WSDT
風向・風速西北西 4m/s
視程10km以上
天気現象弱いしゅう雨
全天の4割程度の雲 雲底高度 550m
全天の8割程度の雲 雲底高度 1220m
18日8時 WSDT ~ 19日8時 WSDT に 確率 40% で一時的に
視程3000m
天気現象雷雨
全天の8割程度の雲 雲底高度 460m
少しの積乱雲 雲底高度 520m
TAF NSFA 171706Z 1718/1818 29007KT 9999 -SHRA SCT018 BKN040
PROB40 TEMPO 1718/1818 3000 TSRA BKN015 FEW017CB